Tiempo atmosférico en la estación meteorológica de El Maíllo, Salamanca (1027 m.)



Fecha
DESCASC
Temp. máxima en grados centígrados (hora)
DESCASC
Temp. mínima en grados centígrados (hora)
DESCASC
Temp. media en grados centígrados
DESCASC
Racha de viento máxima en m/sg (hora)
DESCASC
Velocidad máxima media en intervalos de 10 minutos(hora)
DESCASC
Precipitaciones diarias en mm
DESCASC
Precipitaciones de 00:00 a 06:00 en mm
DESCASC
Precipitaciones de 06:00 a 12:00 en mm
DESCASC
Precipitaciones de 12:00 a 18:00 en mm
DESCASC
Precipitaciones de 18:00 a 24:00 en mm
DESCASC
29-03-2020 13.8 (17:20) 2.5 (07:30) 8.2 6.39 (12:30) 5 (08:40) 0 0 0 0 0
28-03-2020 13.7 (15:30) -1.2 (06:40) 6.2 6.39 (11:40) 4.44 (23:50) 0 0 0 0 0
27-03-2020 10.5 (16:00) -0.3 (07:10) 5.1 10 (05:50) 6.67 (05:50) 0 0 0 0 0
26-03-2020 13.5 (17:10) 2.4 (00:00) 8 7.5 (15:10) 4.17 (20:20) 0 0 0 0 0
25-03-2020 15.5 (17:40) 3.9 (00:00) 9.7 9.72 (18:10) 6.11 (15:40) 0 0 0 0 0
24-03-2020 13.8 (15:30) 4.8 (00:00) 9.3 10.83 (12:40) 7.5 (11:30) 0 0 0 0 0
23-03-2020 12.9 (16:00) 3.6 (00:00) 8.2 11.39 (16:50) 7.22 (17:40) 0 0 0 0 0
22-03-2020 10.4 (17:10) 2 (00:30) 6.2 7.5 (20:50) 5 (21:40) 0.2 0 0.2 0 0
21-03-2020 9.1 (01:40) 1.9 (00:00) 5.5 14.72 (01:50) 7.22 (01:40) 8 3.6 4.4 0 0
20-03-2020 10.5 (09:20) 7 (00:00) 8.8 10.83 (11:00) 6.94 (11:00) 13.2 0 3.2 6 4
19-03-2020 12.7 (16:10) 6.3 (00:00) 9.5 5.56 (03:30) 4.72 (03:30) 0 0 0 0 0
18-03-2020 17.1 (16:00) 5.8 (00:00) 11.5 8.06 (02:00) 6.11 (02:10) 0 0 0 0 0
17-03-2020 12.5 (17:30) 0.7 (00:00) 6.6 13.06 (14:10) 8.61 (14:10) 1 0.8 0 0.2 0
16-03-2020 2.4 (22:10) -0.5 (-00:0) 1 17.5 (22:20) 10.83 (22:10) 32.8 0 0.6 14.2 18
15-03-2020 16.1 (14:00) 0.4 (00:00) 8.3 14.17 (12:20) 9.17 (20:10) 2.2 0 0 0 2.2
14-03-2020 17.9 (15:20) 6.7 (00:00) 12.3 8.06 (07:20) 5.83 (07:20) 0 0 0 0 0
13-03-2020 14 (15:50) 5.7 (06:50) 9.8 6.67 (14:00) 4.17 (14:10) 0 0 0 0 0
12-03-2020 21 (12:20) 10.2 (00:00) 15.6 10.28 (10:50) 7.5 (11:10) 0 0 0 0 0
11-03-2020 23.5 (15:30) 7.3 (00:00) 15.4 9.44 (15:30) 5 (13:00) 0 0 0 0 0
10-03-2020 21.6 (16:40) 5 (00:00) 13.3 8.06 (14:20) 5.56 (14:20) 0 0 0 0 0
09-03-2020 13.1 (16:50) 2.2 (00:00) 7.7 6.67 (01:50) 4.72 (21:40) 0 0 0 0 0
08-03-2020 10 (14:10) -0.8 (-00:0) 4.6 6.67 (11:50) 5 (00:10) 0.2 0 0 0.2 0
07-03-2020 12.7 (16:30) 0.2 (00:00) 6.4 6.67 (22:30) 5.83 (22:30) 0 0 0 0 0
06-03-2020 8.4 (16:30) 1.1 (00:00) 4.7 14.17 (12:00) 9.17 (15:50) 0.4 0.4 0 0 0
05-03-2020 9.9 (15:50) 3 (00:00) 6.4 17.78 (08:40) 11.67 (08:40) 3.4 0 3.2 0 0.2
04-03-2020 11.4 (16:20) 7.2 (08:00) 9.3 9.17 (23:59) 5.83 (23:59) 0.8 0 0.6 0.2 0
03-03-2020 11 (13:10) 3.1 (00:00) 7 17.5 (10:10) 11.11 (09:50) 1 0 0 0.2 0.8
02-03-2020 9.1 (00:00) 1.9 (00:00) 5.5 23.61 (05:00) 14.44 (05:20) 3.4 3.2 0.2 0 0
01-03-2020 13.2 (16:00) 5.2 (00:00) 9.2 22.5 (23:30) 15.56 (23:30) 4.4 0 1.8 0.6 2
29-02-2020 11.9 (13:30) 5.6 (00:00) 8.7 21.11 (08:20) 12.22 (08:20) 0 0 0 0 0

Gráficas

Temp. máximas Temp. mínimas Temp. medias Precipitaciones Rachas de viento máximas Velocidades máximas media en intervalos de 10 minutos

Datos horarios

Fecha y hora oficial Temperatura (ºC) Velocidad del viento (km/h) Dirección del viento Racha (km/h) Dirección de racha Precipitación (mm) Presión (hPa) Tendencia (hPa) Humedad (%)
2020-03-29 23:00:00 8.7 10 Sudoeste 14 Sudoeste 0 -- -- 72
2020-03-29 22:00:00 9.2 8 Sudoeste 10 Sudoeste 0 -- -- 73
2020-03-29 21:00:00 10.2 7 Sur 10 Sudeste 0 -- -- 69
2020-03-29 20:00:00 11.2 5 Sur 10 Noroeste 0 -- -- 65
2020-03-29 19:00:00 12.7 3 Noroeste 15 Norte 0 -- -- 52
2020-03-29 18:00:00 13.4 6 Norte 12 Norte 0 -- -- 49
2020-03-29 17:00:00 13.6 5 Noroeste 12 Norte 0 -- -- 48
2020-03-29 16:00:00 13.1 6 Noroeste 16 Noroeste 0 -- -- 52
2020-03-29 15:00:00 12.7 9 Norte 17 Norte 0 -- -- 50
2020-03-29 14:00:00 12.3 10 Noroeste 22 Norte 0 -- -- 50
2020-03-29 13:00:00 12.8 9 Norte 23 Nordeste 0 -- -- 47
2020-03-29 12:00:00 11.9 7 Nordeste 15 Nordeste 0 -- -- 51
2020-03-29 11:00:00 11.2 4 Norte 9 Norte 0 -- -- 52
2020-03-29 10:00:00 8.2 3 Sur 13 Sur 0 -- -- 66
2020-03-29 09:00:00 3.6 14 Sur 21 Sur 0 -- -- 76
2020-03-29 08:00:00 2.5 18 Sur 21 Sur 0 -- -- 78
2020-03-29 07:00:00 2.8 15 Sur 20 Sur 0 -- -- 76
2020-03-29 06:00:00 3.1 13 Sur 18 Sur 0 -- -- 76
2020-03-29 05:00:00 3.4 14 Sur 20 Sur 0 -- -- 76
2020-03-29 03:00:00 4.2 15 Sur 20 Sur 0 -- -- 77
2020-03-29 01:00:00 5 16 Sur 19 Sur 0 -- -- 75
2020-03-29 00:00:00 5.1 15 Sur 19 Sur 0 -- -- 76
2020-03-28 23:00:00 5.3 15 Sur 17 Sur 0 -- -- 75
2020-03-28 22:00:00 5.6 12 Sur 16 Sur 0 -- -- 75
2020-03-28 21:00:00 6.7 12 Sur 15 Sur 0 -- -- 72
2020-03-28 20:00:00 9.3 4 Sur 12 Noroeste 0 -- -- 65
2020-03-28 19:00:00 11.5 5 Noroeste 12 Noroeste 0 -- -- 52
2020-03-28 18:00:00 12.5 4 Noroeste 14 Noroeste 0 -- -- 48
2020-03-28 17:00:00 12.4 7 Noroeste 15 Noroeste 0 -- -- 47
2020-03-28 16:00:00 12.9 8 Noroeste 17 Oeste 0 -- -- 46
2020-03-28 15:00:00 13.3 8 Noroeste 17 Norte 0 -- -- 41
2020-03-28 14:00:00 12.6 12 Norte 21 Norte 0 -- -- 46
2020-03-28 13:00:00 11.6 10 Norte 23 Nordeste 0 -- -- 50
2020-03-28 12:00:00 10 13 Nordeste 23 Norte 0 -- -- 52
2020-03-28 11:00:00 8.5 9 Nordeste 17 Nordeste 0 -- -- 58
2020-03-28 10:00:00 6.1 10 Nordeste 15 Nordeste 0 -- -- 67
2020-03-28 09:00:00 4.9 8 Nordeste 11 Nordeste 0 -- -- 67
2020-03-28 08:00:00 0.6 4 Sur 7 Sudeste 0 -- -- 87
2020-03-28 07:00:00 -1.2 7 Sur 13 Sur 0 -- -- 87
2020-03-28 06:00:00 -0.6 12 Sur 15 Sur 0 -- -- 85
2020-03-28 05:00:00 -0.7 12 Sur 15 Sur 0 -- -- 84
2020-03-28 04:00:00 -0.3 9 Sudeste 15 Sur 0 -- -- 82
2020-03-28 03:00:00 -0.1 8 Sur 13 Sur 0 -- -- 77
2020-03-28 02:00:00 0 8 Sur 12 Sudeste 0 -- -- 75
2020-03-28 01:00:00 0.9 5 Este 9 Sudeste 0 -- -- 73
2020-03-28 00:00:00 0.3 4 Sudeste 10 Sudeste 0 -- -- 83
2020-03-27 23:00:00 1.5 7 Sudeste 9 Sudeste 0 -- -- 80
2020-03-27 22:00:00 2.7 7 Sudeste 8 Sudeste 0 -- -- 77
2020-03-27 21:00:00 3.2 4 Este 8 Este 0 -- -- 79
2020-03-27 20:00:00 6.3 3 Sur 10 Sudeste 0 -- -- 69
2020-03-27 19:00:00 9 5 Este 11 Norte 0 -- -- 52
2020-03-27 18:00:00 9.1 5 Este 18 Este 0 -- -- 51
2020-03-27 17:00:00 9.2 13 Este 28 Nordeste 0 -- -- 50
2020-03-27 16:00:00 10.5 17 Nordeste 31 Nordeste 0 -- -- 49
2020-03-27 15:00:00 9.1 17 Nordeste 32 Este 0 -- -- 53
2020-03-27 14:00:00 8.4 19 Nordeste 32 Nordeste 0 -- -- 57
2020-03-27 13:00:00 7.6 19 Nordeste 31 Nordeste 0 -- -- 62
2020-03-27 12:00:00 6 18 Nordeste 28 Nordeste 0 -- -- 64
2020-03-27 11:00:00 5 15 Norte 25 Nordeste 0 -- -- 66
2020-03-27 10:00:00 3.9 12 Nordeste 21 Nordeste 0 -- -- 69
2020-03-27 09:00:00 2.5 14 Nordeste 27 Este 0 -- -- 72
2020-03-27 08:00:00 1 19 Este 28 Este 0 -- -- 73
2020-03-27 07:00:00 -0.1 19 Este 30 Nordeste 0 -- -- 76
2020-03-27 06:00:00 0.3 23 Nordeste 36 Nordeste 0 -- -- 76
2020-03-27 05:00:00 0.5 16 Este 32 Nordeste 0 -- -- 79
2020-03-27 04:00:00 1.8 19 Este 30 Este 0 -- -- 77
2020-03-27 03:00:00 2.2 15 Nordeste 25 Este 0 -- -- 76
2020-03-27 02:00:00 4.7 5 Noroeste 13 Norte 0 -- -- 89
2020-03-27 01:00:00 5.2 6 Oeste 13 Sudoeste 0 -- -- 90
2020-03-27 00:00:00 4.9 9 Sudoeste 17 Sudoeste 0 -- -- 90
2020-03-26 23:00:00 5.5 8 Sudoeste 14 Sudoeste 0 -- -- 90
2020-03-26 22:00:00 6.5 8 Sudoeste 16 Sudoeste 0 -- -- 85
2020-03-26 21:00:00 5.5 8 Sur 17 Sur 0 -- -- 73
2020-03-26 20:00:00 7.7 8 Sudeste 12 Sur 0 -- -- 63
2020-03-26 19:00:00 12.6 11 Oeste 17 Noroeste 0 -- -- 41
2020-03-26 18:00:00 13.2 10 Oeste 20 Noroeste 0 -- -- 45
2020-03-26 17:00:00 13.3 12 Noroeste 23 Noroeste 0 -- -- 44
2020-03-26 16:00:00 13.1 10 Noroeste 27 Oeste 0 -- -- 44
2020-03-26 15:00:00 12.5 9 Noroeste 23 Noroeste 0 -- -- 54
2020-03-26 14:00:00 11.4 8 Noroeste 21 Oeste 0 -- -- 59
2020-03-26 13:00:00 10 9 Noroeste 17 Noroeste 0 -- -- 67
2020-03-26 12:00:00 8.5 9 Oeste 15 Oeste 0 -- -- 76
2020-03-26 11:00:00 7.1 6 Noroeste 13 Noroeste 0 -- -- 84
2020-03-26 10:00:00 7 7 Noroeste 12 Noroeste 0 -- -- 85
2020-03-26 09:00:00 6.2 3 Oeste 10 Sur 0 -- -- 94
2020-03-26 08:00:00 3.1 7 Sur 12 Sur 0 -- -- 97
2020-03-26 07:00:00 2.6 7 Sur 14 Sur 0 -- -- 95
2020-03-26 06:00:00 2.7 12 Sur 15 Sur 0 -- -- 95
2020-03-26 05:00:00 3.2 11 Sur 17 Sur 0 -- -- 94
2020-03-26 04:00:00 3.8 12 Sur 15 Sur 0 -- -- 93
2020-03-26 03:00:00 4.6 12 Sur 14 Sur 0 -- -- 92
2020-03-26 02:00:00 5.6 9 Sur 15 Sur 0 -- -- 89
2020-03-26 01:00:00 7.5 8 Sudoeste 17 Sudoeste 0 -- -- 85
2020-03-26 00:00:00 8.5 10 Sudoeste 23 Sudoeste 0 -- -- 84
2020-03-25 23:00:00 8.9 14 Sudoeste 25 Sudoeste 0 -- -- 83
2020-03-25 22:00:00 9.4 14 Sudoeste 26 Sudoeste 0 -- -- 81
2020-03-25 21:00:00 10 13 Sudoeste 24 Oeste 0 -- -- 76
2020-03-25 20:00:00 11.8 10 Sudoeste 27 Noroeste 0 -- -- 65
2020-03-25 19:00:00 14.3 19 Noroeste 35 Oeste 0 -- -- 52
2020-03-25 18:00:00 14.8 20 Noroeste 32 Oeste 0 -- -- 49
2020-03-25 17:00:00 15.3 19 Oeste 32 Oeste 0 -- -- 45
2020-03-25 16:00:00 15 17 Noroeste 33 Noroeste 0 -- -- 49
2020-03-25 15:00:00 14.7 14 Noroeste 27 Oeste 0 -- -- 54
2020-03-25 14:00:00 13.4 14 Noroeste 25 Noroeste 0 -- -- 59
2020-03-25 13:00:00 13.1 12 Oeste 27 Noroeste 0 -- -- 60
2020-03-25 12:00:00 11.4 10 Noroeste 21 Noroeste 0 -- -- 70
2020-03-25 11:00:00 11.2 11 Oeste 18 Oeste 0 -- -- 69
2020-03-25 10:00:00 9.6 10 Oeste 18 Sudoeste 0 -- -- 78
2020-03-25 09:00:00 8.5 9 Sudoeste 15 Sudoeste 0 -- -- 81
2020-03-25 08:00:00 4.9 10 Sur 15 Sur 0 -- -- 93
2020-03-25 07:00:00 4 10 Sur 15 Sur 0 -- -- 93
2020-03-25 06:00:00 4.1 9 Sur 13 Sur 0 -- -- 93
2020-03-25 05:00:00 4.3 10 Sur 14 Sur 0 -- -- 92
2020-03-25 04:00:00 4.4 11 Sur 14 Sur 0 -- -- 91
2020-03-25 03:00:00 4.4 10 Sur 15 Sur 0 -- -- 89
2020-03-25 02:00:00 4.6 12 Sur 14 Sur 0 -- -- 87
2020-03-25 01:00:00 5.3 9 Sur 16 Sur 0 -- -- 84
2020-03-25 00:00:00 6.3 13 Sur 15 Sur 0 -- -- 81
2020-03-24 23:00:00 7.9 4 Sudeste 17 Este 0 -- -- 76
2020-03-24 22:00:00 8.7 9 Este 19 Este 0 -- -- 74
2020-03-24 21:00:00 9.3 12 Este 18 Este 0 -- -- 74
2020-03-24 20:00:00 9.9 8 Este 26 Nordeste 0 -- -- 73
2020-03-24 19:00:00 12.5 10 Nordeste 31 Nordeste 0 -- -- 64
2020-03-24 18:00:00 13.4 18 Nordeste 25 Nordeste 0 -- -- 58
2020-03-24 17:00:00 12.5 12 Nordeste 32 Nordeste 0 -- -- 59
2020-03-24 16:00:00 12.4 19 Nordeste 31 Nordeste 0 -- -- 56
2020-03-24 15:00:00 12.8 14 Este 28 Este 0 -- -- 55
2020-03-24 14:00:00 12.7 18 Este 33 Nordeste 0 -- -- 56
2020-03-24 13:00:00 12.3 18 Nordeste 39 Este 0 -- -- 61
2020-03-24 12:00:00 12.4 23 Este 38 Nordeste 0 -- -- 61
2020-03-24 11:00:00 11.6 22 Este 32 Este 0 -- -- 61
2020-03-24 10:00:00 9.9 22 Nordeste 33 Nordeste 0 -- -- 66
2020-03-24 09:00:00 8.8 16 Este 27 Este 0 -- -- 70
2020-03-24 08:00:00 6.1 15 Este 24 Nordeste 0 -- -- 81
2020-03-24 07:00:00 4.8 10 Este 19 Este 0 -- -- 85
2020-03-24 06:00:00 6.3 15 Este 29 Este 0 -- -- 79
2020-03-24 05:00:00 7.5 18 Este 28 Este 0 -- -- 75
2020-03-24 04:00:00 7.2 17 Este 24 Este 0 -- -- 76
2020-03-24 03:00:00 6.5 10 Sudeste 19 Este 0 -- -- 77
2020-03-24 02:00:00 7.4 14 Este 21 Este 0 -- -- 72
2020-03-24 01:00:00 7.4 17 Este 25 Este 0 -- -- 72
2020-03-24 00:00:00 5.1 8 Sudeste 16 Sudeste 0 -- -- 79
2020-03-23 23:00:00 7.1 10 Este 24 Sudeste 0 -- -- 72
2020-03-23 22:00:00 8 17 Este 24 Este 0 -- -- 68
2020-03-23 21:00:00 7.1 9 Este 13 Este 0 -- -- 74
2020-03-23 20:00:00 7.7 4 Este 21 Nordeste 0 -- -- 74
2020-03-23 19:00:00 10.6 16 Nordeste 28 Nordeste 0 -- -- 66
2020-03-23 18:00:00 10.9 19 Nordeste 37 Nordeste 0 -- -- 65
2020-03-23 17:00:00 11.1 19 Este 41 Este 0 -- -- 68
2020-03-23 16:00:00 12.9 18 Nordeste 34 Nordeste 0 -- -- 62
2020-03-23 15:00:00 12.3 23 Nordeste 36 Nordeste 0 -- -- 58
2020-03-23 14:00:00 11.8 18 Nordeste 31 Nordeste 0 -- -- 65
2020-03-23 13:00:00 10.9 18 Nordeste 26 Este 0 -- -- 68
2020-03-23 12:00:00 9.3 15 Nordeste 24 Nordeste 0 -- -- 79
2020-03-23 11:00:00 10.1 16 Nordeste 26 Este 0 -- -- 75
2020-03-23 10:00:00 8.6 12 Nordeste 17 Nordeste 0 -- -- 79
2020-03-23 09:00:00 6.5 8 Nordeste 12 Este 0 -- -- 86
2020-03-23 08:00:00 3.6 0 Calma 9 Este 0 -- -- 91
2020-03-23 07:00:00 5 7 Este 13 Este 0 -- -- 89
2020-03-23 06:00:00 5.1 9 Este 15 Este 0 -- -- 92
2020-03-23 05:00:00 4.8 9 Este 14 Este 0 -- -- 91
2020-03-23 04:00:00 4.9 8 Este 11 Este 0 -- -- 88
2020-03-23 03:00:00 5.4 7 Este 16 Este 0 -- -- 88
2020-03-23 02:00:00 5.7 9 Este 14 Este 0 -- -- 89
2020-03-23 01:00:00 5.7 8 Este 13 Este 0 -- -- 89
2020-03-23 00:00:00 6 8 Este 13 Norte 0 -- -- 89
2020-03-22 23:00:00 7.4 7 Este 15 Este 0 -- -- 80
2020-03-22 22:00:00 7.5 12 Este 26 Este 0 -- -- 81
2020-03-22 21:00:00 7.2 15 Este 27 Este 0 -- -- 84
2020-03-22 20:00:00 8.9 8 Nordeste 19 Nordeste 0 -- -- 79
2020-03-22 19:00:00 9.8 13 Nordeste 21 Norte 0 -- -- 75
2020-03-22 18:00:00 10 13 Nordeste 24 Norte 0 -- -- 73
2020-03-22 17:00:00 10.1 11 Norte 22 Norte 0 -- -- 67
2020-03-22 16:00:00 9.9 13 Nordeste 23 Norte 0 -- -- 77
2020-03-22 15:00:00 10 13 Nordeste 24 Norte 0 -- -- 74
2020-03-22 14:00:00 9.4 13 Norte 22 Norte 0 -- -- 76
2020-03-22 13:00:00 9.2 8 Nordeste 26 Este 0 -- -- 79
2020-03-22 12:00:00 7.5 11 Nordeste 23 Nordeste 0 -- -- 84
2020-03-22 11:00:00 5.8 8 Nordeste 13 Nordeste 0 -- -- 99
2020-03-22 10:00:00 4.6 4 Nordeste 7 Nordeste 0 -- -- 99
2020-03-22 09:00:00 4.2 2 Noroeste 6 Nordeste 0.2 -- -- 99
2020-03-22 08:00:00 4 2 Norte 6 Norte 0 -- -- 98
2020-03-22 07:00:00 3.4 3 Este 7 Nordeste 0 -- -- 99
2020-03-22 06:00:00 2.9 3 Este 8 Nordeste 0 -- -- 97
2020-03-22 05:00:00 2.2 2 Este 8 Sur 0 -- -- 96
2020-03-22 04:00:00 2.9 6 Sur 9 Sudeste 0 -- -- 95
2020-03-22 03:00:00 2.9 9 Sur 11 Sur 0 -- -- 95
2020-03-22 02:00:00 3.3 4 Sudeste 15 Sudeste 0 -- -- 94
2020-03-22 01:00:00 2 14 Sur 19 Sur 0 -- -- 93
2020-03-22 00:00:00 2.1 13 Sur 17 Sudeste 0 -- -- 94
2020-03-21 23:00:00 2.1 7 Sudeste 15 Sur 0 -- -- 94
2020-03-21 22:00:00 2 10 Sur 12 Sur 0 -- -- 93
2020-03-21 21:00:00 2.6 9 Sur 13 Sur 0 -- -- 91
2020-03-21 20:00:00 4.6 6 Sudeste 9 Sur 0 -- -- 85
2020-03-21 19:00:00 7.9 5 Este 16 Este 0 -- -- 67
2020-03-21 18:00:00 8 9 Sur 21 Sur 0 -- -- 68
2020-03-21 17:00:00 8.2 11 Sur 21 Sur 0 -- -- 72
2020-03-21 16:00:00 7.5 15 Sur 20 Sudeste 0 -- -- 77
2020-03-21 15:00:00 6.5 9 Noroeste 17 Oeste 0 -- -- 87
2020-03-21 14:00:00 6.5 6 Nordeste 27 Sudeste 0 -- -- 85
2020-03-21 13:00:00 6 15 Sudeste 25 Sudeste 0 -- -- 84
2020-03-21 12:00:00 5.5 6 Este 27 Sudeste 0.4 -- -- 89
2020-03-21 11:00:00 4.4 18 Sudeste 30 Sudeste 0.4 -- -- 88
2020-03-21 10:00:00 5.3 14 Sudeste 23 Sudeste 0.4 -- -- 92
2020-03-21 09:00:00 5 8 Sudoeste 13 Sudoeste 0.6 -- -- 97
2020-03-21 08:00:00 4.6 9 Sudoeste 21 Sudoeste 0.4 -- -- 97
2020-03-21 07:00:00 4.9 5 Oeste 13 Oeste 2.2 -- -- 97
2020-03-21 06:00:00 5.8 3 Oeste 10 Sudeste 0.6 -- -- 94
2020-03-21 05:00:00 6.3 3 Este 24 Sur 0.2 -- -- 90
2020-03-21 04:00:00 6.6 6 Sur 40 Sudoeste 0.8 -- -- 91
2020-03-21 03:00:00 8 18 Sur 48 Sudeste 1.2 -- -- 87
2020-03-21 02:00:00 8.4 11 Este 53 Sudeste 0.6 -- -- 89
2020-03-21 01:00:00 7.9 6 Este 20 Nordeste 0.2 -- -- 92
2020-03-21 00:00:00 7.2 12 Este 27 Este 0 -- -- 93
2020-03-20 23:00:00 8 14 Este 37 Sudeste 0 -- -- 90
2020-03-20 22:00:00 8.7 20 Sudeste 35 Sudeste 0.4 -- -- 85
2020-03-20 21:00:00 8.5 17 Sudeste 32 Sudeste 3.6 -- -- 88
2020-03-20 20:00:00 8.6 9 Este 15 Este 0 -- -- 95
2020-03-20 19:00:00 9 8 Este 19 Este 0 -- -- 93
2020-03-20 18:00:00 9.1 13 Este 21 Este 0 -- -- 96
2020-03-20 17:00:00 8 12 Este 20 Este 0.4 -- -- 96
2020-03-20 16:00:00 8.1 7 Nordeste 11 Este 0.6 -- -- 95
2020-03-20 15:00:00 7.1 3 Sudoeste 14 Sudoeste 1.2 -- -- 95
2020-03-20 14:00:00 7.4 4 Sur 20 Sudoeste 2.2 -- -- 91
2020-03-20 13:00:00 7.7 8 Sudoeste 17 Oeste 1.6 -- -- 94
2020-03-20 12:00:00 7.7 4 Oeste 30 Sur 2.2 -- -- 91
2020-03-20 11:00:00 8.4 25 Sur 39 Sur 1 -- -- 85
2020-03-20 10:00:00 9.4 19 Sur 32 Sur 0 -- -- 82
2020-03-20 09:00:00 10 3 Nordeste 14 Sur 0 -- -- 75
2020-03-20 08:00:00 10 13 Sudeste 19 Sudeste 0 -- -- 75
2020-03-20 07:00:00 10.2 2 Sur 7 Sudoeste 0 -- -- 73
2020-03-20 06:00:00 9.8 3 Este 14 Nordeste 0 -- -- 74
2020-03-20 05:00:00 9.6 6 Sudeste 15 Este 0 -- -- 75
2020-03-20 04:00:00 8.3 0 Calma 8 Este 0 -- -- 83
2020-03-20 03:00:00 8.9 5 Este 11 Este 0 -- -- 77
2020-03-20 02:00:00 9.5 6 Este 13 Este 0 -- -- 76
2020-03-20 01:00:00 8.7 0 Calma 10 Sur 0 -- -- 82
2020-03-20 00:00:00 9.1 4 Sur 9 Este 0 -- -- 78
2020-03-19 23:00:00 9 3 Este 12 Sur 0 -- -- 79
2020-03-19 22:00:00 8.7 6 Sur 11 Sur 0 -- -- 88
2020-03-19 21:00:00 8.9 7 Sur 12 Sur 0 -- -- 86
2020-03-19 20:00:00 9.7 9 Sudeste 10 Sudeste 0 -- -- 87
2020-03-19 19:00:00 11.5 3 Nordeste 5 Nordeste 0 -- -- 79
2020-03-19 18:00:00 12.3 2 Norte 7 Norte 0 -- -- 74
2020-03-19 17:00:00 12.6 4 Norte 9 Norte 0 -- -- 71
2020-03-19 16:00:00 12.6 4 Norte 9 Norte 0 -- -- 69
2020-03-19 15:00:00 12.4 4 Norte 10 Norte 0 -- -- 70
2020-03-19 14:00:00 12.5 3 Norte 9 Noroeste 0 -- -- 66
2020-03-19 13:00:00 12.6 4 Noroeste 12 Noroeste 0 -- -- 65
2020-03-19 12:00:00 12.3 8 Noroeste 14 Noroeste 0 -- -- 68
2020-03-19 11:00:00 12.1 4 Noroeste 10 Noroeste 0 -- -- 68
2020-03-19 10:00:00 10.6 0 Calma 8 Sur 0 -- -- 76
2020-03-19 09:00:00 8.3 7 Sur 15 Sur 0 -- -- 83
2020-03-19 08:00:00 6.4 12 Sur 17 Sur 0 -- -- 85
2020-03-19 07:00:00 6.9 10 Sur 15 Sur 0 -- -- 80
2020-03-19 06:00:00 7.2 15 Sur 20 Sur 0 -- -- 79
2020-03-19 05:00:00 7.4 13 Sur 19 Sur 0 -- -- 78
2020-03-19 04:00:00 7.5 15 Sur 20 Sur 0 -- -- 77
2020-03-19 03:00:00 8.1 10 Sur 18 Sur 0 -- -- 75
2020-03-19 02:00:00 8.8 10 Sur 18 Sur 0 -- -- 73
2020-03-19 01:00:00 9.6 8 Sur 17 Este 0 -- -- 72
2020-03-19 00:00:00 12.5 15 Este 22 Este 0 -- -- 56
2020-03-18 23:00:00 13 14 Este 27 Este 0 -- -- 55
2020-03-18 22:00:00 13.3 12 Este 20 Este 0 -- -- 55
2020-03-18 21:00:00 13.6 11 Este 24 Este 0 -- -- 57
2020-03-18 20:00:00 12.9 12 Este 19 Este 0 -- -- 65
2020-03-18 19:00:00 14.5 14 Nordeste 20 Este 0 -- -- 64
2020-03-18 18:00:00 15.3 10 Nordeste 21 Nordeste 0 -- -- 62
2020-03-18 17:00:00 16.4 14 Nordeste 23 Nordeste 0 -- -- 55
2020-03-18 16:00:00 17.1 4 Noroeste 13 Oeste 0 -- -- 55
2020-03-18 15:00:00 16.4 7 Oeste 14 Oeste 0 -- -- 56
2020-03-18 14:00:00 16.3 9 Este 25 Este 0 -- -- 48
2020-03-18 13:00:00 15.8 15 Este 26 Este 0 -- -- 48
2020-03-18 12:00:00 14.7 12 Nordeste 24 Nordeste 0 -- -- 44
2020-03-18 11:00:00 13.1 13 Nordeste 25 Este 0 -- -- 53
2020-03-18 10:00:00 12.1 17 Este 26 Este 0 -- -- 58
2020-03-18 09:00:00 9 9 Este 15 Nordeste 0 -- -- 74
2020-03-18 08:00:00 7.4 12 Nordeste 19 Este 0 -- -- 76
2020-03-18 07:00:00 7.1 8 Este 20 Este 0 -- -- 80
2020-03-18 06:00:00 8.1 10 Este 18 Este 0 -- -- 76
2020-03-18 05:00:00 8.7 13 Este 28 Este 0 -- -- 76
2020-03-18 04:00:00 9.4 21 Este 26 Este 0 -- -- 73
2020-03-18 03:00:00 9.4 18 Este 29 Este 0 -- -- 74
2020-03-18 02:00:00 8 22 Este 29 Este 0 -- -- 82
2020-03-18 01:00:00 6.2 14 Este 22 Este 0 -- -- 89
2020-03-18 00:00:00 6.2 10 Este 16 Sudeste 0 -- -- 88
2020-03-17 23:00:00 6.1 11 Este 14 Sudeste 0 -- -- 90
2020-03-17 22:00:00 4.1 8 Sudeste 17 Sur 0 -- -- 91
2020-03-17 21:00:00 5.5 13 Sudeste 16 Sur 0 -- -- 86
2020-03-17 20:00:00 7.1 3 Sur 6 Sudeste 0 -- -- 78
2020-03-17 19:00:00 11.5 5 Sudeste 15 Este 0 -- -- 65
2020-03-17 18:00:00 12.2 9 Sudeste 30 Este 0 -- -- 60
2020-03-17 17:00:00 12 17 Nordeste 30 Este 0 -- -- 60
2020-03-17 16:00:00 10.5 21 Este 37 Este 0 -- -- 67
2020-03-17 15:00:00 11.8 27 Este 47 Este 0 -- -- 59
2020-03-17 14:00:00 10.9 30 Este 44 Nordeste 0 -- -- 62
2020-03-17 13:00:00 10.1 29 Este 42 Nordeste 0.2 -- -- 66
2020-03-17 12:00:00 8.6 22 Nordeste 37 Nordeste 0 -- -- 79
2020-03-17 11:00:00 5.9 21 Nordeste 30 Este 0 -- -- 86
2020-03-17 10:00:00 3.9 12 Este 21 Nordeste 0 -- -- 96
2020-03-17 09:00:00 2.6 12 Este 21 Este 0 -- -- 96
2020-03-17 08:00:00 1.9 13 Este 20 Este 0 -- -- 98
2020-03-17 07:00:00 1.2 12 Nordeste 19 Este 0 -- -- 98
2020-03-17 06:00:00 1.1 10 Este 23 Este 0 -- -- 98
2020-03-17 05:00:00 1.5 11 Este 25 Este 0 -- -- 98
2020-03-17 04:00:00 1.2 14 Este 22 Este 0 -- -- 98
2020-03-17 03:00:00 1.4 9 Este 21 Este 0 -- -- 98
2020-03-17 02:00:00 1.3 12 Este 21 Sudeste 0.2 -- -- 99
2020-03-17 01:00:00 1.3 13 Este 26 Este 0.6 -- -- 99
2020-03-17 00:00:00 0.9 14 Este 48 Nordeste 1.4 -- -- 99
2020-03-16 23:00:00 2 30 Nordeste 63 Nordeste 1.8 -- -- 99
2020-03-16 22:00:00 2.3 36 Nordeste 57 Nordeste 2.8 -- -- 100
2020-03-16 21:00:00 2.1 22 Nordeste 52 Nordeste 3.2 -- -- 100
2020-03-16 20:00:00 2.1 31 Nordeste 57 Nordeste 4.4 -- -- 100
2020-03-16 19:00:00 1.9 25 Norte 47 Norte 4.4 -- -- 100
2020-03-16 18:00:00 0.9 18 Nordeste 31 Norte 2.6 -- -- 100
2020-03-16 17:00:00 1 21 Norte 36 Norte 3.8 -- -- 100
2020-03-16 16:00:00 0.9 18 Norte 34 Norte 3.2 -- -- 100
2020-03-16 15:00:00 1 13 Noroeste 23 Noroeste 2.2 -- -- 100
2020-03-16 14:00:00 0.4 12 Noroeste 23 Norte 1.4 -- -- 100
2020-03-16 13:00:00 0.2 9 Norte 17 Norte 1 -- -- 100
2020-03-16 12:00:00 0.2 6 Noroeste 18 Norte 0.6 -- -- 100
2020-03-16 11:00:00 0 4 Noroeste 27 Oeste 0 -- -- 100
2020-03-16 10:00:00 -0.2 14 Noroeste 26 Noroeste 0 -- -- 100
2020-03-16 09:00:00 -0.3 15 Noroeste 26 Noroeste 0 -- -- 99
2020-03-16 08:00:00 -0.4 16 Noroeste 30 Noroeste 0 -- -- 99
2020-03-16 07:00:00 -0.4 16 Noroeste 31 Oeste 0 -- -- 99
2020-03-16 06:00:00 -0.5 15 Noroeste 31 Noroeste 0 -- -- 99
2020-03-16 05:00:00 -0.4 20 Noroeste 36 Noroeste 0 -- -- 98
2020-03-16 04:00:00 -0.4 15 Noroeste 26 Noroeste 0 -- -- 98
2020-03-16 03:00:00 -0.3 16 Oeste 30 Oeste 0 -- -- 97
2020-03-16 02:00:00 -0.1 19 Oeste 34 Oeste 0 -- -- 96
2020-03-16 01:00:00 0.1 15 Oeste 29 Oeste 0 -- -- 95
2020-03-16 00:00:00 0.4 10 Oeste 23 Oeste 0.2 -- -- 94
2020-03-15 23:00:00 0.6 14 Oeste 22 Oeste 0.4 -- -- 96
2020-03-15 22:00:00 0.5 9 Oeste 30 Oeste 1 -- -- 95
2020-03-15 21:00:00 3 19 Oeste 45 Oeste 0.6 -- -- 89
2020-03-15 20:00:00 7.4 21 Oeste 37 Oeste 0 -- -- 78
2020-03-15 19:00:00 8.3 13 Sudoeste 26 Oeste 0 -- -- 69
2020-03-15 18:00:00 8.7 18 Oeste 33 Oeste 0 -- -- 69
2020-03-15 17:00:00 10.4 19 Oeste 32 Oeste 0 -- -- 75
2020-03-15 16:00:00 10.2 14 Oeste 33 Oeste 0 -- -- 80
2020-03-15 15:00:00 10.8 27 Oeste 44 Sudoeste 0 -- -- 76
2020-03-15 14:00:00 16.1 27 Sudoeste 44 Sudoeste 0 -- -- 50
2020-03-15 13:00:00 15.2 24 Sudoeste 51 Oeste 0 -- -- 53
2020-03-15 12:00:00 15.3 28 Sudoeste 45 Sudoeste 0 -- -- 49
2020-03-15 11:00:00 15.3 21 Sudoeste 36 Sudoeste 0 -- -- 57
2020-03-15 10:00:00 14.5 12 Sudoeste 30 Sur 0 -- -- 57
2020-03-15 09:00:00 12.6 6 Oeste 23 Sudoeste 0 -- -- 59
2020-03-15 08:00:00 11.7 16 Sudoeste 25 Sur 0 -- -- 58
2020-03-15 07:00:00 9.2 10 Sur 17 Sur 0 -- -- 58
2020-03-15 06:00:00 7.4 15 Sur 20 Sur 0 -- -- 63
2020-03-15 05:00:00 6.3 13 Sur 20 Sur 0 -- -- 62
2020-03-15 04:00:00 6.8 14 Sur 22 Sur 0 -- -- 61
2020-03-15 03:00:00 7.5 18 Sur 25 Sur 0 -- -- 56
2020-03-15 02:00:00 7.4 20 Sur 25 Sur 0 -- -- 56
2020-03-15 01:00:00 7.9 20 Sur 23 Sur 0 -- -- 56
2020-03-15 00:00:00 8.3 18 Sur 21 Sur 0 -- -- 56
2020-03-14 23:00:00 7.6 15 Sur 19 Sudeste 0 -- -- 59
2020-03-14 22:00:00 7.3 13 Sur 17 Sur 0 -- -- 59
2020-03-14 21:00:00 7 8 Sudeste 13 Sudeste 0 -- -- 64
2020-03-14 20:00:00 9.3 12 Sur 13 Sur 0 -- -- 59
2020-03-14 19:00:00 16 6 Norte 14 Norte 0 -- -- 40
2020-03-14 18:00:00 17 9 Norte 17 Norte 0 -- -- 32
2020-03-14 17:00:00 17.6 8 Norte 22 Norte 0 -- -- 30
2020-03-14 16:00:00 17.7 12 Norte 23 Norte 0 -- -- 30
2020-03-14 15:00:00 17.7 15 Nordeste 26 Nordeste 0 -- -- 35
2020-03-14 14:00:00 17.1 14 Nordeste 23 Nordeste 0 -- -- 39
2020-03-14 13:00:00 16.2 13 Nordeste 22 Nordeste 0 -- -- 44
2020-03-14 12:00:00 14.8 12 Nordeste 22 Nordeste 0 -- -- 57
2020-03-14 11:00:00 14.2 12 Este 20 Nordeste 0 -- -- 50
2020-03-14 10:00:00 12.2 14 Este 23 Este 0 -- -- 60
2020-03-14 09:00:00 9.8 13 Este 22 Este 0 -- -- 72
2020-03-14 08:00:00 8.3 17 Este 29 Este 0 -- -- 76
2020-03-14 07:00:00 8.2 15 Este 26 Sudeste 0 -- -- 77
2020-03-14 06:00:00 7.7 12 Este 20 Este 0 -- -- 77
2020-03-14 05:00:00 8.8 15 Este 28 Este 0 -- -- 73
2020-03-14 04:00:00 8.8 17 Este 26 Este 0 -- -- 71
2020-03-14 03:00:00 8.4 14 Este 24 Este 0 -- -- 74
2020-03-14 02:00:00 8.1 12 Este 21 Este 0 -- -- 81
2020-03-14 01:00:00 9 16 Este 24 Este 0 -- -- 80
2020-03-14 00:00:00 8.3 14 Este 21 Este 0 -- -- 88
2020-03-13 23:00:00 8.4 12 Este 16 Este 0 -- -- 88
2020-03-13 22:00:00 8.8 10 Este 13 Este 0 -- -- 88
2020-03-13 21:00:00 9.4 11 Este 14 Este 0 -- -- 88
2020-03-13 20:00:00 10.7 8 Nordeste 17 Norte 0 -- -- 84
2020-03-13 19:00:00 12.7 11 Nordeste 20 Norte 0 -- -- 78
2020-03-13 18:00:00 13.3 10 Norte 18 Norte 0 -- -- 77
2020-03-13 17:00:00 13.4 12 Nordeste 21 Norte 0 -- -- 77
2020-03-13 16:00:00 13.6 14 Nordeste 22 Nordeste 0 -- -- 75
2020-03-13 15:00:00 13.6 14 Norte 23 Norte 0 -- -- 74
2020-03-13 14:00:00 12.8 14 Norte 24 Norte 0 -- -- 75
2020-03-13 13:00:00 11.6 12 Norte 21 Norte 0 -- -- 80
2020-03-13 12:00:00 10.7 12 Nordeste 17 Nordeste 0 -- -- 85
2020-03-13 11:00:00 7.9 12 Nordeste 20 Nordeste 0 -- -- 99
2020-03-13 10:00:00 7 11 Nordeste 19 Nordeste 0 -- -- 99
2020-03-13 09:00:00 6.7 12 Nordeste 17 Nordeste 0 -- -- 99
2020-03-13 08:00:00 6.6 8 Nordeste 12 Nordeste 0 -- -- 98
2020-03-13 07:00:00 5.7 3 Sudoeste 7 Este 0 -- -- 98
2020-03-13 06:00:00 6.5 5 Nordeste 10 Este 0 -- -- 97
2020-03-13 05:00:00 7.3 6 Nordeste 8 Nordeste 0 -- -- 96
2020-03-13 04:00:00 7.5 4 Este 12 Sudeste 0 -- -- 94
2020-03-13 03:00:00 8.7 12 Sudeste 14 Sudeste 0 -- -- 90
2020-03-13 02:00:00 8.3 5 Sudeste 14 Sur 0 -- -- 91
2020-03-13 01:00:00 9.1 9 Sudeste 12 Sur 0 -- -- 90
2020-03-13 00:00:00 10.2 8 Sur 13 Sur 0 -- -- 86
2020-03-12 23:00:00 10.8 10 Sur 14 Sur 0 -- -- 84
2020-03-12 22:00:00 11.6 6 Sur 15 Sur 0 -- -- 84
2020-03-12 21:00:00 12.8 12 Sur 14 Sur 0 -- -- 78
2020-03-12 20:00:00 14.4 5 Sudeste 8 Sur 0 -- -- 77
2020-03-12 19:00:00 16.5 3 Sur 13 Noroeste 0 -- -- 71
2020-03-12 18:00:00 18 10 Noroeste 18 Noroeste 0 -- -- 64
2020-03-12 17:00:00 19.9 8 Sudoeste 21 Sudoeste 0 -- -- 44
2020-03-12 16:00:00 20.5 8 Sudoeste 22 Sudoeste 0 -- -- 42
2020-03-12 15:00:00 20.3 11 Sur 23 Sur 0 -- -- 41
2020-03-12 14:00:00 20.7 10 Sur 26 Sudoeste 0 -- -- 44
2020-03-12 13:00:00 20.5 15 Sur 32 Sur 0 -- -- 42
2020-03-12 12:00:00 20.3 21 Sudoeste 37 Sur 0 -- -- 40
2020-03-12 11:00:00 19.1 27 Sudeste 37 Sur 0 -- -- 44
2020-03-12 10:00:00 18.6 21 Sur 36 Sur 0 -- -- 45
2020-03-12 09:00:00 16.3 15 Sur 33 Sur 0 -- -- 48
2020-03-12 08:00:00 15.7 13 Sur 25 Sur 0 -- -- 49
2020-03-12 07:00:00 15.7 4 Sudeste 19 Sur 0 -- -- 47
2020-03-12 06:00:00 17 10 Sur 24 Sudeste 0 -- -- 45
2020-03-12 05:00:00 17.4 16 Sur 26 Sur 0 -- -- 43
2020-03-12 04:00:00 16.7 9 Sur 18 Sur 0 -- -- 47
2020-03-12 03:00:00 14.9 3 Nordeste 10 Sur 0 -- -- 42
2020-03-12 02:00:00 14.7 4 Este 12 Norte 0 -- -- 42
2020-03-12 01:00:00 13.1 0 Calma 14 Sudeste 0 -- -- 52
2020-03-12 00:00:00 12.6 9 Sudeste 13 Sudeste 0 -- -- 53
2020-03-11 23:00:00 12.9 6 Sudeste 10 Sur 0 -- -- 52
2020-03-11 22:00:00 14.7 4 Sudeste 9 Sudeste 0 -- -- 46
2020-03-11 21:00:00 14.9 5 Sur 9 Sudeste 0 -- -- 47
2020-03-11 20:00:00 16.4 5 Sudeste 10 Sur 0 -- -- 47
2020-03-11 19:00:00 18.1 9 Sudoeste 17 Sudoeste 0 -- -- 43
2020-03-11 18:00:00 19.4 13 Sudoeste 26 Sur 0 -- -- 40
2020-03-11 17:00:00 20.9 17 Sur 25 Sur 0 -- -- 41
2020-03-11 16:00:00 23.4 14 Sudoeste 34 Sudoeste 0 -- -- 35
2020-03-11 15:00:00 22.6 4 Norte 19 Noroeste 0 -- -- 41
2020-03-11 14:00:00 21.5 15 Noroeste 26 Oeste 0 -- -- 43
2020-03-11 13:00:00 21.4 18 Noroeste 25 Oeste 0 -- -- 41
2020-03-11 12:00:00 20.9 13 Oeste 22 Sudoeste 0 -- -- 41
2020-03-11 11:00:00 20 13 Oeste 19 Oeste 0 -- -- 41
2020-03-11 10:00:00 18 6 Sudoeste 12 Sudeste 0 -- -- 49
2020-03-11 09:00:00 12.3 3 Sudeste 15 Sur 0 -- -- 68
2020-03-11 08:00:00 8.3 11 Sur 14 Sur 0 -- -- 76
2020-03-11 07:00:00 9 12 Sur 18 Sur 0 -- -- 71
2020-03-11 06:00:00 9.2 11 Sur 15 Sur 0 -- -- 71
2020-03-11 05:00:00 9.2 6 Sur 9 Sur 0 -- -- 71
2020-03-11 04:00:00 9 6 Sur 12 Sudeste 0 -- -- 73
2020-03-11 03:00:00 7.9 8 Sudeste 14 Sudeste 0 -- -- 82
2020-03-11 02:00:00 7.6 11 Sur 14 Sur 0 -- -- 84
2020-03-11 01:00:00 8.7 13 Sudeste 18 Sur 0 -- -- 78
2020-03-11 00:00:00 9.1 15 Sur 17 Sur 0 -- -- 75
2020-03-10 23:00:00 9 12 Sur 14 Sur 0 -- -- 77
2020-03-10 22:00:00 9.9 10 Sur 16 Sur 0 -- -- 76
2020-03-10 21:00:00 11.3 13 Sur 15 Sur 0 -- -- 74
2020-03-10 20:00:00 14.1 7 Sur 11 Sur 0 -- -- 67
2020-03-10 19:00:00 19.1 5 Oeste 18 Oeste 0 -- -- 53
2020-03-10 18:00:00 20.7 12 Oeste 24 Oeste 0 -- -- 46
2020-03-10 17:00:00 21.3 15 Oeste 26 Oeste 0 -- -- 46
2020-03-10 16:00:00 21.1 12 Oeste 27 Oeste 0 -- -- 40
2020-03-10 15:00:00 21 15 Oeste 29 Oeste 0 -- -- 38
2020-03-10 14:00:00 20.5 13 Oeste 22 Oeste 0 -- -- 45
2020-03-10 13:00:00 18.7 8 Noroeste 14 Noroeste 0 -- -- 54
2020-03-10 12:00:00 17.5 5 Noroeste 9 Norte 0 -- -- 50
2020-03-10 11:00:00 15.6 3 Noroeste 6 Noroeste 0 -- -- 52
2020-03-10 10:00:00 13.4 0 Calma 8 Sur 0 -- -- 59
2020-03-10 09:00:00 9.5 5 Sur 17 Sur 0 -- -- 75
2020-03-10 08:00:00 8.1 12 Sur 20 Sudeste 0 -- -- 76
2020-03-10 07:00:00 8.3 15 Sudeste 20 Sur 0 -- -- 71
2020-03-10 06:00:00 6.6 12 Sudeste 15 Sudeste 0 -- -- 73
2020-03-10 05:00:00 6 11 Sur 23 Sur 0 -- -- 75
2020-03-10 04:00:00 5.6 17 Sur 21 Sur 0 -- -- 73
2020-03-10 03:00:00 5.3 10 Sur 17 Sur 0 -- -- 77
2020-03-10 02:00:00 5.3 10 Sur 14 Sur 0 -- -- 76
2020-03-10 01:00:00 5.2 13 Sur 15 Sudeste 0 -- -- 74
2020-03-10 00:00:00 5.3 11 Sur 18 Sur 0 -- -- 73
2020-03-09 23:00:00 5.4 12 Sur 15 Sur 0 -- -- 72
2020-03-09 22:00:00 5.6 15 Sur 20 Sur 0 -- -- 75
2020-03-09 21:00:00 5.6 13 Sur 15 Sur 0 -- -- 77
2020-03-09 20:00:00 7.8 6 Sur 9 Sur 0 -- -- 70
2020-03-09 19:00:00 11.1 6 Noroeste 14 Noroeste 0 -- -- 59
2020-03-09 18:00:00 12.4 9 Noroeste 17 Noroeste 0 -- -- 54
2020-03-09 17:00:00 13.1 6 Noroeste 17 Noroeste 0 -- -- 54
2020-03-09 16:00:00 12.2 6 Norte 14 Noroeste 0 -- -- 48
2020-03-09 15:00:00 11.7 7 Noroeste 18 Noroeste 0 -- -- 58
2020-03-09 14:00:00 10.6 6 Norte 19 Noroeste 0 -- -- 66
2020-03-09 13:00:00 9.3 6 Noroeste 17 Noroeste 0 -- -- 62
2020-03-09 12:00:00 8.2 4 Norte 10 Noroeste 0 -- -- 69
2020-03-09 11:00:00 6.4 3 Noroeste 15 Noroeste 0 -- -- 80
2020-03-09 10:00:00 5 9 Noroeste 15 Oeste 0 -- -- 87
2020-03-09 09:00:00 3.4 7 Sur 13 Sur 0 -- -- 95
2020-03-09 08:00:00 2.3 8 Sudoeste 17 Sudoeste 0 -- -- 97
2020-03-09 07:00:00 2.7 9 Sudoeste 16 Sudoeste 0 -- -- 98
2020-03-09 06:00:00 3.9 8 Sudoeste 16 Oeste 0 -- -- 98
2020-03-09 05:00:00 4.6 7 Oeste 19 Noroeste 0 -- -- 98
2020-03-09 04:00:00 5 9 Oeste 17 Oeste 0 -- -- 98
2020-03-09 03:00:00 5.3 13 Oeste 20 Oeste 0 -- -- 97
2020-03-09 02:00:00 5.6 13 Oeste 24 Oeste 0 -- -- 97
2020-03-09 01:00:00 6.2 10 Oeste 17 Oeste 0 -- -- 97
2020-03-09 00:00:00 6.4 9 Oeste 22 Oeste 0 -- -- 97
2020-03-08 23:00:00 7 13 Oeste 21 Oeste 0 -- -- 96
2020-03-08 22:00:00 7.4 11 Oeste 18 Sudoeste 0 -- -- 96
2020-03-08 21:00:00 7.3 10 Sudoeste 16 Sudoeste 0 -- -- 93
2020-03-08 20:00:00 8.3 7 Sudoeste 10 Oeste 0 -- -- 89
2020-03-08 19:00:00 8.5 7 Sudoeste 18 Oeste 0 -- -- 86
2020-03-08 18:00:00 8.8 12 Oeste 23 Oeste 0 -- -- 82
2020-03-08 17:00:00 9.5 15 Oeste 23 Oeste 0 -- -- 79
2020-03-08 16:00:00 9.6 11 Oeste 17 Sudoeste 0 -- -- 76
2020-03-08 15:00:00 9.3 10 Oeste 22 Oeste 0 -- -- 72
2020-03-08 14:00:00 9.8 9 Oeste 17 Oeste 0.2 -- -- 58
2020-03-08 13:00:00 8.3 13 Oeste 23 Oeste 0 -- -- 77
2020-03-08 12:00:00 8.7 10 Oeste 24 Oeste 0 -- -- 80
2020-03-08 11:00:00 7 4 Oeste 9 Noroeste 0 -- -- 90
2020-03-08 10:00:00 4.5 3 Oeste 14 Sudoeste 0 -- -- 96
2020-03-08 09:00:00 2.3 8 Sudoeste 14 Sudeste 0 -- -- 95
2020-03-08 08:00:00 0 9 Sur 16 Sur 0 -- -- 93
2020-03-08 07:00:00 -0.6 5 Sudeste 12 Sudeste 0 -- -- 89
2020-03-08 06:00:00 0 12 Sur 20 Sur 0 -- -- 84
2020-03-08 05:00:00 0.3 13 Sur 18 Sudeste 0 -- -- 84
2020-03-08 04:00:00 1.2 2 Este 16 Sur 0 -- -- 77
2020-03-08 03:00:00 0.9 13 Sur 17 Sur 0 -- -- 79
2020-03-08 02:00:00 1.5 15 Sur 21 Sudeste 0 -- -- 68
2020-03-08 01:00:00 2.1 14 Sur 20 Sur 0 -- -- 64
2020-03-08 00:00:00 2.7 18 Sur 22 Sur 0 -- -- 67
2020-03-07 23:00:00 2.7 17 Sur 24 Sur 0 -- -- 69
2020-03-07 22:00:00 3.3 18 Sur 21 Sur 0 -- -- 78
2020-03-07 21:00:00 4.5 15 Sur 21 Sur 0 -- -- 82
2020-03-07 20:00:00 5.6 12 Sur 15 Sur 0 -- -- 80
2020-03-07 19:00:00 11.4 6 Oeste 16 Oeste 0 -- -- 58
2020-03-07 18:00:00 12.6 7 Oeste 22 Oeste 0 -- -- 51
2020-03-07 17:00:00 12.6 12 Noroeste 21 Oeste 0 -- -- 59
2020-03-07 16:00:00 12.5 10 Noroeste 22 Oeste 0 -- -- 60
2020-03-07 15:00:00 12.3 8 Noroeste 17 Noroeste 0 -- -- 59
2020-03-07 14:00:00 11.5 6 Nordeste 20 Nordeste 0 -- -- 59
2020-03-07 13:00:00 9.9 12 Nordeste 19 Nordeste 0 -- -- 63
2020-03-07 12:00:00 8.4 14 Nordeste 21 Nordeste 0 -- -- 71
2020-03-07 11:00:00 7 10 Nordeste 15 Nordeste 0 -- -- 75
2020-03-07 10:00:00 6.2 6 Nordeste 10 Nordeste 0 -- -- 81
2020-03-07 09:00:00 3.2 2 Sudeste 7 Este 0 -- -- 96
2020-03-07 08:00:00 2.3 4 Sudoeste 12 Sudoeste 0 -- -- 97
2020-03-07 07:00:00 2 7 Sudoeste 10 Sur 0 -- -- 97
2020-03-07 06:00:00 0.7 6 Sur 13 Sur 0 -- -- 94
2020-03-07 05:00:00 0.8 4 Sur 13 Sur 0 -- -- 92
2020-03-07 04:00:00 0.5 9 Sur 14 Sur 0 -- -- 91
2020-03-07 03:00:00 0.7 5 Sur 10 Sur 0 -- -- 90
2020-03-07 02:00:00 1 4 Oeste 12 Sudeste 0 -- -- 86
2020-03-07 01:00:00 0.3 6 Sur 13 Sur 0 -- -- 84
2020-03-07 00:00:00 1.1 7 Sur 13 Oeste 0 -- -- 81
2020-03-06 23:00:00 1.7 5 Sudoeste 20 Noroeste 0 -- -- 80
2020-03-06 22:00:00 3.1 4 Noroeste 22 Noroeste 0 -- -- 76
2020-03-06 21:00:00 3.5 12 Noroeste 27 Noroeste 0 -- -- 73
2020-03-06 20:00:00 4.3 18 Noroeste 35 Noroeste 0 -- -- 70
2020-03-06 19:00:00 5.9 22 Noroeste 38 Noroeste 0 -- -- 63
2020-03-06 18:00:00 7.2 29 Noroeste 43 Noroeste 0 -- -- 55
2020-03-06 17:00:00 7.7 30 Noroeste 43 Oeste 0 -- -- 58
2020-03-06 16:00:00 7.9 31 Noroeste 45 Noroeste 0 -- -- 60
2020-03-06 15:00:00 7.2 28 Noroeste 44 Noroeste 0 -- -- 65
2020-03-06 14:00:00 6.2 22 Noroeste 39 Noroeste 0 -- -- 69
2020-03-06 13:00:00 6.3 27 Noroeste 42 Noroeste 0 -- -- 73
2020-03-06 12:00:00 4.8 30 Noroeste 51 Noroeste 0 -- -- 77
2020-03-06 11:00:00 4 28 Oeste 46 Oeste 0 -- -- 85
2020-03-06 10:00:00 3.3 26 Oeste 38 Oeste 0 -- -- 91
2020-03-06 09:00:00 2.1 20 Oeste 34 Oeste 0 -- -- 94
2020-03-06 08:00:00 1.7 15 Oeste 30 Oeste 0 -- -- 93
2020-03-06 07:00:00 2.2 21 Oeste 36 Oeste 0 -- -- 93
2020-03-06 06:00:00 2.5 23 Oeste 45 Oeste 0 -- -- 96
2020-03-06 05:00:00 3.6 31 Oeste 46 Oeste 0.2 -- -- 97
2020-03-06 04:00:00 4 31 Oeste 50 Sudoeste 0.2 -- -- 96
2020-03-06 03:00:00 4.1 25 Sudoeste 44 Sudoeste 0 -- -- 95
2020-03-06 02:00:00 3.7 19 Sudoeste 32 Oeste 0 -- -- 95
2020-03-06 01:00:00 3.3 14 Sudoeste 31 Sudoeste 0 -- -- 95
2020-03-06 00:00:00 3.5 17 Sudoeste 29 Oeste 0 -- -- 93
2020-03-05 23:00:00 3.2 16 Sudoeste 30 Oeste 0 -- -- 92
2020-03-05 22:00:00 3.3 15 Oeste 29 Oeste 0 -- -- 90
2020-03-05 21:00:00 4.4 19 Oeste 36 Oeste 0 -- -- 85
2020-03-05 20:00:00 5.1 27 Oeste 41 Sudoeste 0 -- -- 83
2020-03-05 19:00:00 6.1 26 Oeste 46 Oeste 0.2 -- -- 88
2020-03-05 18:00:00 8.6 35 Oeste 50 Oeste 0 -- -- 68
2020-03-05 17:00:00 9.5 28 Oeste 49 Oeste 0 -- -- 67
2020-03-05 16:00:00 9.7 31 Oeste 51 Oeste 0 -- -- 73
2020-03-05 15:00:00 8.6 28 Oeste 48 Oeste 0 -- -- 78
2020-03-05 14:00:00 8.4 33 Oeste 50 Oeste 0 -- -- 80
2020-03-05 13:00:00 7.8 31 Oeste 50 Oeste 0 -- -- 85
2020-03-05 12:00:00 6.3 28 Oeste 51 Oeste 0 -- -- 87
2020-03-05 11:00:00 5.8 29 Oeste 42 Oeste 0 -- -- 94
2020-03-05 10:00:00 5.2 22 Oeste 53 Sudoeste 0.6 -- -- 98
2020-03-05 09:00:00 6.9 40 Oeste 64 Oeste 2 -- -- 96
2020-03-05 08:00:00 8.3 34 Sudoeste 53 Sudoeste 0.4 -- -- 95
2020-03-05 07:00:00 8.3 33 Sudoeste 50 Sudoeste 0.2 -- -- 95
2020-03-05 06:00:00 8.6 30 Sudoeste 57 Sudoeste 0 -- -- 91
2020-03-05 05:00:00 8.9 33 Sudoeste 51 Sudoeste 0 -- -- 84
2020-03-05 04:00:00 8.8 22 Sudoeste 40 Sudoeste 0 -- -- 85
2020-03-05 03:00:00 9 22 Sudoeste 40 Sudoeste 0 -- -- 92
2020-03-05 02:00:00 9.5 23 Sudoeste 35 Sudoeste 0 -- -- 92
2020-03-05 01:00:00 9.5 22 Sudoeste 35 Sudoeste 0 -- -- 94
2020-03-05 00:00:00 9.3 21 Sudoeste 33 Sudoeste 0 -- -- 94
2020-03-04 23:00:00 9.6 16 Sudoeste 28 Sudoeste 0 -- -- 92
2020-03-04 22:00:00 9.2 11 Sudoeste 22 Sudoeste 0 -- -- 90
2020-03-04 21:00:00 9.8 14 Sudoeste 24 Sudoeste 0 -- -- 88
2020-03-04 20:00:00 9.9 14 Sudoeste 23 Sudoeste 0 -- -- 88
2020-03-04 19:00:00 9.9 14 Sudoeste 20 Sudoeste 0 -- -- 91
2020-03-04 18:00:00 9.7 11 Sudoeste 17 Oeste 0 -- -- 94
2020-03-04 17:00:00 9.7 13 Oeste 26 Sudoeste 0.2 -- -- 93
2020-03-04 16:00:00 11 14 Oeste 24 Oeste 0 -- -- 82
2020-03-04 15:00:00 10.8 15 Oeste 28 Oeste 0 -- -- 80
2020-03-04 14:00:00 9.9 12 Oeste 23 Oeste 0 -- -- 87
2020-03-04 13:00:00 9.3 13 Oeste 28 Oeste 0 -- -- 92
2020-03-04 12:00:00 9.5 12 Sudoeste 30 Oeste 0 -- -- 95
2020-03-04 11:00:00 8.6 12 Oeste 24 Sudoeste 0.2 -- -- 98
2020-03-04 10:00:00 8 11 Sudoeste 21 Sudoeste 0.2 -- -- 98
2020-03-04 09:00:00 7.5 15 Sudoeste 24 Sudoeste 0 -- -- 98
2020-03-04 08:00:00 7.2 13 Sudoeste 21 Sudoeste 0 -- -- 97
2020-03-04 07:00:00 7.3 13 Sudoeste 30 Oeste 0.2 -- -- 97
2020-03-04 06:00:00 7.8 9 Sudoeste 23 Sudoeste 0 -- -- 97
2020-03-04 05:00:00 8.2 14 Sudoeste 28 Sudoeste 0 -- -- 96
2020-03-04 04:00:00 8.9 20 Sudoeste 31 Sudoeste 0 -- -- 97
2020-03-04 03:00:00 9.3 17 Sudoeste 27 Sudoeste 0 -- -- 98
2020-03-04 02:00:00 9.6 18 Sudoeste 33 Sudoeste 0 -- -- 98
2020-03-04 01:00:00 9.5 12 Sudoeste 30 Sudoeste 0 -- -- 99
2020-03-04 00:00:00 9.6 14 Oeste 25 Sudoeste 0.2 -- -- 99
2020-03-03 23:00:00 9.7 17 Sudoeste 28 Sudoeste 0 -- -- 99
2020-03-03 22:00:00 9.7 18 Oeste 30 Oeste 0 -- -- 99
2020-03-03 21:00:00 9.8 16 Oeste 31 Oeste 0 -- -- 98
2020-03-03 20:00:00 9.8 18 Oeste 33 Oeste 0.2 -- -- 98
2020-03-03 19:00:00 10 21 Oeste 35 Sudoeste 0.4 -- -- 97
2020-03-03 18:00:00 10.2 25 Oeste 40 Oeste 0.2 -- -- 96
2020-03-03 17:00:00 10.4 23 Oeste 50 Oeste 0 -- -- 95
2020-03-03 16:00:00 10.8 31 Oeste 51 Oeste 0 -- -- 92
2020-03-03 15:00:00 10.9 32 Oeste 57 Oeste 0 -- -- 89
2020-03-03 14:00:00 10.8 35 Oeste 54 Oeste 0 -- -- 89
2020-03-03 13:00:00 10.8 29 Oeste 44 Sudoeste 0 -- -- 87
2020-03-03 12:00:00 9.1 33 Sudoeste 52 Oeste 0 -- -- 91
2020-03-03 11:00:00 7.6 33 Sudoeste 63 Sudoeste 0 -- -- 93
2020-03-03 10:00:00 7.2 38 Sudoeste 60 Sudoeste 0 -- -- 90
2020-03-03 09:00:00 5.6 37 Sudoeste 60 Sudoeste 0 -- -- 93
2020-03-03 08:00:00 5 35 Sudoeste 53 Sudoeste 0 -- -- 91
2020-03-03 07:00:00 4.8 32 Sudoeste 48 Sudoeste 0 -- -- 90
2020-03-03 06:00:00 4.5 26 Sudoeste 41 Sudoeste 0 -- -- 89
2020-03-03 05:00:00 4.7 28 Sudoeste 42 Sudoeste 0 -- -- 80
2020-03-03 04:00:00 4.9 28 Sudoeste 41 Sudoeste 0 -- -- 81
2020-03-03 03:00:00 4.3 23 Sudoeste 33 Sudoeste 0 -- -- 81
2020-03-03 02:00:00 3.4 21 Sudoeste 32 Sudoeste 0 -- -- 85
2020-03-03 01:00:00 3.1 20 Sudoeste 31 Sur 0 -- -- 85
2020-03-03 00:00:00 3.2 15 Sudoeste 27 Sudoeste 0 -- -- 86
2020-03-02 23:00:00 3.1 17 Sudoeste 26 Sudoeste 0 -- -- 83
2020-03-02 22:00:00 2.2 12 Sudoeste 20 Sudoeste 0 -- -- 80
2020-03-02 21:00:00 2.5 15 Sudoeste 33 Oeste 0 -- -- 77
2020-03-02 20:00:00 2.9 15 Oeste 24 Noroeste 0 -- -- 82
2020-03-02 19:00:00 3.6 18 Noroeste 40 Oeste 0 -- -- 74
2020-03-02 18:00:00 4.9 25 Oeste 40 Noroeste 0 -- -- 72
2020-03-02 17:00:00 5.2 16 Oeste 32 Noroeste 0 -- -- 80
2020-03-02 16:00:00 4 18 Noroeste 53 Noroeste 0 -- -- 84
2020-03-02 15:00:00 5 31 Oeste 55 Oeste 0 -- -- 75
2020-03-02 14:00:00 4.7 32 Noroeste 68 Oeste 0 -- -- 82
2020-03-02 13:00:00 6.8 33 Oeste 51 Oeste 0 -- -- 73
2020-03-02 12:00:00 4.5 38 Oeste 56 Oeste 0 -- -- 82
2020-03-02 11:00:00 3.9 26 Oeste 54 Oeste 0.2 -- -- 96
2020-03-02 10:00:00 4.6 34 Oeste 60 Oeste 0 -- -- 87
2020-03-02 09:00:00 4.3 34 Oeste 58 Sudoeste 0 -- -- 89
2020-03-02 08:00:00 5 31 Oeste 58 Oeste 0 -- -- 88
2020-03-02 07:00:00 6 40 Oeste 69 Oeste 0 -- -- 88
2020-03-02 06:00:00 7.4 46 Oeste 85 Oeste 0 -- -- 87
2020-03-02 05:00:00 8.9 50 Oeste 85 Sudoeste 0.4 -- -- 95
2020-03-02 04:00:00 8.9 45 Sudoeste 76 Sudoeste 0.4 -- -- 97
2020-03-02 03:00:00 8.7 42 Sudoeste 73 Sudoeste 1.4 -- -- 96
2020-03-02 02:00:00 8.4 46 Sudoeste 72 Sudoeste 1 -- -- 94
2020-03-02 01:00:00 8.4 45 Sudoeste 79 Sudoeste 0 -- -- 90
2020-03-02 00:00:00 9.1 52 Sudoeste 81 Sudoeste 0.6 -- -- 90
2020-03-01 23:00:00 8.3 45 Sudoeste 80 Sur 0.8 -- -- 91
2020-03-01 22:00:00 9.4 39 Sudoeste 69 Sudoeste 0.2 -- -- 92
2020-03-01 21:00:00 9.5 35 Sudoeste 66 Sur 0.4 -- -- 93
2020-03-01 20:00:00 9.6 35 Sudoeste 59 Sudoeste 0 -- -- 90
2020-03-01 19:00:00 10.4 31 Sudoeste 56 Sur 0 -- -- 79
2020-03-01 18:00:00 10.9 25 Sudoeste 51 Sudoeste 0 -- -- 77
2020-03-01 17:00:00 11.4 25 Sudoeste 50 Sudoeste 0 -- -- 73
2020-03-01 16:00:00 13.2 28 Sudoeste 48 Sudoeste 0 -- -- 68
2020-03-01 15:00:00 11.9 26 Sudoeste 44 Oeste 0.2 -- -- 67
2020-03-01 14:00:00 10.3 21 Sudoeste 53 Sur 0.4 -- -- 87
2020-03-01 13:00:00 11.2 23 Sudoeste 46 Sudoeste 0 -- -- 81
2020-03-01 12:00:00 9.2 23 Sudoeste 44 Sudoeste 0.2 -- -- 93
2020-03-01 11:00:00 8.1 24 Sudoeste 47 Sudoeste 1.6 -- -- 94
2020-03-01 10:00:00 8.4 23 Sudoeste 50 Sur 0 -- -- 88
2020-03-01 09:00:00 7.7 32 Sudoeste 54 Sur 0 -- -- 88
2020-03-01 08:00:00 7 28 Sudoeste 42 Sur 0 -- -- 86
2020-03-01 07:00:00 6.6 31 Sudoeste 51 Sur 0 -- -- 87
2020-03-01 06:00:00 6.3 31 Sudoeste 55 Sudoeste 0 -- -- 90
2020-03-01 05:00:00 5.6 28 Sudoeste 50 Sudoeste 0 -- -- 90
2020-03-01 04:00:00 5.6 28 Sudoeste 44 Sudoeste 0 -- -- 91
2020-03-01 03:00:00 5.2 21 Sudoeste 37 Sudoeste 0 -- -- 93
2020-03-01 02:00:00 6 23 Sudoeste 38 Sudoeste 0 -- -- 87
2020-03-01 01:00:00 5.6 22 Sudoeste 40 Sudoeste 0 -- -- 89
2020-03-01 00:00:00 5.9 21 Sudoeste 32 Sudoeste 0 -- -- 83
2020-02-29 23:00:00 5.7 22 Sudoeste 36 Oeste 0 -- -- 83
2020-02-29 22:00:00 6.1 24 Sudoeste 37 Oeste 0 -- -- 81
2020-02-29 21:00:00 6.1 19 Sudoeste 30 Sudoeste 0 -- -- 76
2020-02-29 20:00:00 5.9 12 Sudoeste 33 Oeste 0 -- -- 77
2020-02-29 19:00:00 6.5 25 Oeste 42 Oeste 0 -- -- 75
2020-02-29 18:00:00 7.3 24 Oeste 47 Sudoeste 0 -- -- 72
2020-02-29 17:00:00 8.4 33 Oeste 47 Oeste 0 -- -- 71
2020-02-29 16:00:00 9.3 34 Oeste 51 Sudoeste 0 -- -- 72
2020-02-29 15:00:00 10.4 30 Oeste 46 Sudoeste 0 -- -- 70
2020-02-29 14:00:00 10.3 31 Oeste 60 Sudoeste 0 -- -- 82
2020-02-29 13:00:00 11.4 40 Sudoeste 66 Sudoeste 0 -- -- 78
2020-02-29 12:00:00 10.8 31 Sudoeste 60 Sudoeste 0 -- -- 79
2020-02-29 11:00:00 10.8 38 Sudoeste 59 Sur 0 -- -- 78
2020-02-29 10:00:00 9.4 37 Sur 67 Sur 0 -- -- 82
2020-02-29 09:00:00 8.1 39 Sur 76 Sur 0 -- -- 82
2020-02-29 08:00:00 6.8 37 Sudoeste 62 Sur 0 -- -- 81
2020-02-29 07:00:00 7 37 Sudoeste 58 Sudoeste 0 -- -- 83
2020-02-29 06:00:00 6.7 33 Sudoeste 58 Sudoeste 0 -- -- 76
2020-02-29 05:00:00 7.7 24 Sudoeste 47 Sudoeste 0 -- -- 60
2020-02-29 04:00:00 9.8 30 Sudoeste 53 Sur 0 -- -- 36
2020-02-29 03:00:00 10.2 35 Sur 64 Sur 0 -- -- 32
2020-02-29 02:00:00 10.6 39 Sur 66 Sur 0 -- -- 36
2020-02-29 01:00:00 10.1 28 Sur 46 Sur 0 -- -- 55
2020-02-29 00:00:00 9.8 21 Sudoeste 34 Sudoeste 0 -- -- 60